createdAt,value
2018-06-22T00:00:21.902Z,0
2018-06-22T00:01:31.991Z,0
2018-06-22T00:02:42.058Z,0
2018-06-22T00:03:51.879Z,0
2018-06-22T00:05:01.970Z,0
2018-06-22T00:06:12.061Z,0
2018-06-22T00:07:21.878Z,0
2018-06-22T00:08:31.978Z,0
2018-06-22T00:09:42.062Z,0
2018-06-22T00:10:52.138Z,0
2018-06-22T00:12:02.218Z,0
2018-06-22T00:13:12.290Z,0
2018-06-22T00:14:22.376Z,0
2018-06-22T00:15:32.463Z,0
2018-06-22T00:16:42.263Z,0
2018-06-22T00:17:52.344Z,0
2018-06-22T00:19:02.430Z,0
2018-06-22T00:20:15.382Z,0
2018-06-22T00:21:25.505Z,0
2018-06-22T00:22:35.307Z,0
2018-06-22T00:23:45.377Z,0
2018-06-22T00:24:55.456Z,0
2018-06-22T00:26:05.525Z,0
2018-06-22T00:27:15.361Z,0
2018-06-22T00:28:25.443Z,0
2018-06-22T00:29:35.521Z,0
2018-06-22T00:30:45.603Z,0
2018-06-22T00:31:55.419Z,0
2018-06-22T00:33:05.494Z,0
2018-06-22T00:34:15.584Z,0
2018-06-22T00:35:25.701Z,0
2018-06-22T00:36:35.788Z,0
2018-06-22T00:37:45.872Z,0
2018-06-22T00:38:55.710Z,0
2018-06-22T00:40:05.836Z,0
2018-06-22T00:41:15.971Z,0
2018-06-22T00:42:26.056Z,0
2018-06-22T00:43:36.127Z,0
2018-06-22T00:44:46.187Z,0
2018-06-22T00:45:56.005Z,0
2018-06-22T00:47:06.067Z,0
2018-06-22T00:48:16.155Z,0
2018-06-22T00:49:25.976Z,0
2018-06-22T00:50:35.783Z,0
2018-06-22T00:51:45.901Z,0
2018-06-22T00:52:55.971Z,0
2018-06-22T00:54:06.040Z,0
2018-06-22T00:55:15.846Z,0
2018-06-22T00:56:25.912Z,0
2018-06-22T00:57:36.973Z,0
2018-06-22T00:58:47.035Z,0
2018-06-22T00:59:57.162Z,0
2018-06-22T01:01:07.248Z,0
2018-06-22T01:02:17.065Z,0
2018-06-22T01:03:27.136Z,0
2018-06-22T01:04:36.950Z,0
2018-06-22T01:05:47.029Z,0
2018-06-22T01:06:57.114Z,0
2018-06-22T01:08:07.189Z,0
2018-06-22T01:09:17.312Z,0
2018-06-22T01:10:27.121Z,0
2018-06-22T01:11:37.196Z,0
2018-06-22T01:12:47.263Z,0
2018-06-22T01:13:57.365Z,0
2018-06-22T01:15:07.482Z,0
2018-06-22T01:16:17.554Z,0
2018-06-22T01:17:27.405Z,0
2018-06-22T01:18:37.473Z,0
2018-06-22T01:19:47.560Z,0
2018-06-22T01:20:57.665Z,0
2018-06-22T01:22:07.473Z,0
2018-06-22T01:23:17.547Z,0
2018-06-22T01:24:27.622Z,0
2018-06-22T01:25:37.438Z,0
2018-06-22T01:26:47.266Z,0
2018-06-22T01:27:57.343Z,0
2018-06-22T01:29:07.435Z,0
2018-06-22T01:30:17.025Z,0
2018-06-22T01:31:27.094Z,0
2018-06-22T01:32:36.915Z,0
2018-06-22T01:33:46.723Z,0
2018-06-22T01:34:56.791Z,0
2018-06-22T01:36:06.851Z,0
2018-06-22T01:37:16.911Z,0
2018-06-22T01:38:27.030Z,0
2018-06-22T01:39:36.877Z,0
2018-06-22T01:40:46.681Z,0
2018-06-22T01:41:56.483Z,0
2018-06-22T01:43:06.598Z,0
2018-06-22T01:44:16.735Z,0
2018-06-22T01:45:26.795Z,0
2018-06-22T01:46:36.871Z,0
2018-06-22T01:47:46.431Z,0
2018-06-22T01:48:56.512Z,0
2018-06-22T01:50:06.594Z,0
2018-06-22T01:51:16.409Z,0
2018-06-22T01:52:26.479Z,0
2018-06-22T01:53:36.555Z,0
2018-06-22T01:54:46.383Z,0
2018-06-22T01:55:56.506Z,0
2018-06-22T01:57:06.563Z,0
2018-06-22T01:58:16.625Z,0
2018-06-22T01:59:26.695Z,0
2018-06-22T02:00:36.831Z,0
2018-06-22T02:01:46.913Z,0
2018-06-22T02:02:56.997Z,0
2018-06-22T02:04:07.084Z,0
2018-06-22T02:05:17.185Z,0
2018-06-22T02:06:27.263Z,0
2018-06-22T02:07:37.124Z,0
2018-06-22T02:08:47.190Z,0
2018-06-22T02:09:57.276Z,0
2018-06-22T02:11:07.348Z,0
2018-06-22T02:12:17.416Z,0
2018-06-22T02:13:27.605Z,0
2018-06-22T02:14:37.430Z,0
2018-06-22T02:15:47.243Z,0
2018-06-22T02:16:57.318Z,0
2018-06-22T02:18:07.404Z,0
2018-06-22T02:19:17.215Z,0
2018-06-22T02:20:27.305Z,0
2018-06-22T02:21:37.395Z,0
2018-06-22T02:22:47.490Z,0
2018-06-22T02:23:57.566Z,0
2018-06-22T02:25:07.374Z,0
2018-06-22T02:26:17.445Z,0
2018-06-22T02:27:27.511Z,0
2018-06-22T02:28:37.688Z,0
2018-06-22T02:29:47.560Z,0
2018-06-22T02:30:57.115Z,0
2018-06-22T02:32:07.203Z,0
2018-06-22T02:33:17.271Z,0
2018-06-22T02:34:27.086Z,0
2018-06-22T02:35:37.173Z,0
2018-06-22T02:36:47.362Z,0
2018-06-22T02:37:57.438Z,0
2018-06-22T02:39:07.541Z,0
2018-06-22T02:40:17.611Z,0
2018-06-22T02:41:27.707Z,0
2018-06-22T02:42:37.770Z,0
2018-06-22T02:43:47.916Z,0
2018-06-22T02:44:58.036Z,0
2018-06-22T02:46:08.120Z,0
2018-06-22T02:47:17.931Z,0
2018-06-22T02:48:28.029Z,0
2018-06-22T02:49:37.836Z,0
2018-06-22T02:50:47.920Z,0
2018-06-22T02:51:58.259Z,0
2018-06-22T02:53:08.391Z,0
2018-06-22T02:54:18.275Z,0
2018-06-22T02:55:28.363Z,0
2018-06-22T02:56:38.192Z,0
2018-06-22T02:57:48.274Z,0
2018-06-22T02:58:58.088Z,0
2018-06-22T03:00:08.150Z,0
2018-06-22T03:01:18.251Z,0
2018-06-22T03:02:28.308Z,0
2018-06-22T03:34:42.590Z,0
2018-06-22T03:35:52.655Z,0
2018-06-22T03:37:02.717Z,0
2018-06-22T03:38:12.787Z,0
2018-06-22T03:39:22.621Z,0
2018-06-22T03:40:32.496Z,5
2018-06-22T03:41:42.582Z,5
2018-06-22T03:42:52.695Z,5
2018-06-22T03:44:02.776Z,5
2018-06-22T03:45:12.877Z,5
2018-06-22T03:46:22.742Z,5
2018-06-22T03:47:32.564Z,5
2018-06-22T03:48:42.388Z,5
2018-06-22T03:49:52.474Z,5
2018-06-22T03:51:02.540Z,5
2018-06-22T03:52:12.355Z,5
2018-06-22T03:53:22.159Z,5
2018-06-22T03:54:31.712Z,5
2018-06-22T03:55:41.527Z,10
2018-06-22T03:56:51.844Z,10
2018-06-22T03:58:01.980Z,10
2018-06-22T03:59:12.048Z,10
2018-06-22T04:00:21.868Z,10
2018-06-22T04:01:31.682Z,10
2018-06-22T04:02:41.751Z,10
2018-06-22T04:03:51.849Z,10
2018-06-22T04:05:01.698Z,15
2018-06-22T04:06:11.511Z,15
2018-06-22T04:07:21.597Z,15
2018-06-22T04:08:31.673Z,15
2018-06-22T04:09:41.751Z,15
2018-06-22T04:10:51.826Z,15
2018-06-22T04:12:01.630Z,15
2018-06-22T04:13:11.207Z,20
2018-06-22T04:14:21.274Z,20
2018-06-22T04:15:31.357Z,20
2018-06-22T04:16:41.177Z,20
2018-06-22T04:17:50.991Z,20
2018-06-22T04:19:00.543Z,20
2018-06-22T04:20:10.620Z,15
2018-06-22T04:21:20.706Z,15
2018-06-22T04:22:30.516Z,15
2018-06-22T04:23:40.323Z,15
2018-06-22T04:24:50.399Z,20
2018-06-22T04:26:00.503Z,15
2018-06-22T04:27:10.575Z,15
2018-06-22T04:28:20.666Z,20
2018-06-22T04:29:30.762Z,20
2018-06-22T04:30:40.833Z,20
2018-06-22T04:31:50.646Z,25
2018-06-22T04:33:00.772Z,25
2018-06-22T04:34:10.838Z,25
2018-06-22T04:35:20.906Z,25
2018-06-22T04:36:30.720Z,25
2018-06-22T04:37:40.788Z,25
2018-06-22T04:38:51.230Z,25
2018-06-22T04:40:01.295Z,25
2018-06-22T04:41:11.109Z,25
2018-06-22T04:42:20.916Z,25
2018-06-22T04:43:31.003Z,30
2018-06-22T04:44:41.126Z,30
2018-06-22T04:45:51.192Z,30
2018-06-22T04:47:01.272Z,30
2018-06-22T04:48:11.360Z,30
2018-06-22T04:49:21.185Z,30
2018-06-22T04:50:31.255Z,30
2018-06-22T04:51:41.341Z,30
2018-06-22T04:52:51.166Z,35
2018-06-22T04:54:01.242Z,35
2018-06-22T04:55:11.320Z,35
2018-06-22T04:56:21.248Z,35
2018-06-22T04:57:31.328Z,35
2018-06-22T04:58:41.400Z,35
2018-06-22T04:59:51.459Z,35
2018-06-22T05:01:01.523Z,35
2018-06-22T05:02:11.607Z,35
2018-06-22T05:03:21.692Z,35
2018-06-22T05:04:31.749Z,35
2018-06-22T05:05:41.815Z,35
2018-06-22T05:06:51.926Z,35
2018-06-22T05:08:02.046Z,35
2018-06-22T05:09:12.132Z,35
2018-06-22T05:10:22.217Z,35
2018-06-22T05:11:32.027Z,35
2018-06-22T05:12:42.100Z,35
2018-06-22T05:13:51.977Z,35
2018-06-22T05:15:02.041Z,35
2018-06-22T05:16:12.122Z,35
2018-06-22T05:17:22.201Z,40
2018-06-22T05:18:32.250Z,40
2018-06-22T05:19:42.052Z,40
2018-06-22T05:20:52.123Z,40
2018-06-22T05:22:02.193Z,40
2018-06-22T05:23:12.267Z,40
2018-06-22T05:24:22.329Z,45
2018-06-22T05:25:32.158Z,45
2018-06-22T05:26:42.242Z,45
2018-06-22T05:27:52.318Z,45
2018-06-22T05:29:02.421Z,45
2018-06-22T05:30:12.312Z,50
2018-06-22T05:31:22.396Z,50
2018-06-22T05:32:32.467Z,50
2018-06-22T05:33:42.544Z,50
2018-06-22T05:34:52.613Z,50
2018-06-22T05:36:02.900Z,50
2018-06-22T05:37:12.988Z,50
2018-06-22T05:38:23.045Z,50
2018-06-22T05:39:33.115Z,50
2018-06-22T05:40:42.918Z,50
2018-06-22T05:41:52.720Z,50
2018-06-22T05:43:02.529Z,50
2018-06-22T05:44:12.603Z,50
2018-06-22T05:45:22.456Z,50
2018-06-22T05:46:32.545Z,50
2018-06-22T05:47:42.612Z,50
2018-06-22T05:48:52.418Z,50
2018-06-22T05:50:02.497Z,50
2018-06-22T05:51:12.795Z,50
2018-06-22T05:52:22.860Z,50
2018-06-22T05:53:32.685Z,50
2018-06-22T05:54:42.748Z,50
2018-06-22T05:55:52.573Z,55
2018-06-22T05:57:02.773Z,55
2018-06-22T05:58:12.576Z,55
2018-06-22T05:59:22.641Z,55
2018-06-22T06:00:32.190Z,60
2018-06-22T06:01:41.733Z,60
2018-06-22T06:02:51.530Z,60
2018-06-22T06:04:01.620Z,65
2018-06-22T06:05:11.435Z,65
2018-06-22T06:06:21.540Z,65
2018-06-22T06:07:31.603Z,65
2018-06-22T06:08:41.403Z,65
2018-06-22T06:09:51.264Z,65
2018-06-22T06:11:01.338Z,65
2018-06-22T06:12:11.164Z,65
2018-06-22T06:13:21.233Z,65
2018-06-22T06:14:31.306Z,65
2018-06-22T06:15:41.390Z,65
2018-06-22T06:16:51.452Z,65
2018-06-22T06:18:01.536Z,65
2018-06-22T06:19:11.088Z,70
2018-06-22T06:20:21.176Z,65
2018-06-22T06:21:31.019Z,65
2018-06-22T06:22:41.113Z,60
2018-06-22T06:23:51.198Z,60
2018-06-22T06:25:01.259Z,60
2018-06-22T06:26:11.340Z,65
2018-06-22T06:27:21.642Z,65
2018-06-22T06:28:31.724Z,65
2018-06-22T06:29:41.576Z,70
2018-06-22T06:30:51.396Z,70
2018-06-22T06:32:01.499Z,70
2018-06-22T06:33:11.329Z,70
2018-06-22T06:34:21.582Z,70
2018-06-22T06:35:31.774Z,70
2018-06-22T06:36:41.595Z,75
2018-06-22T06:37:51.407Z,70
2018-06-22T06:39:01.474Z,70
2018-06-22T06:40:11.570Z,70
2018-06-22T06:41:21.648Z,70
2018-06-22T06:42:31.740Z,70
2018-06-22T06:43:41.549Z,70
2018-06-22T06:44:51.628Z,75
2018-06-22T06:46:01.449Z,75
2018-06-22T06:47:11.503Z,75
2018-06-22T06:48:21.325Z,85
2018-06-22T06:49:31.458Z,80
2018-06-22T06:50:41.547Z,80
2018-06-22T06:51:51.644Z,85
2018-06-22T06:53:01.759Z,85
2018-06-22T06:54:11.843Z,90
2018-06-22T06:55:21.928Z,90
2018-06-22T06:56:32.054Z,95
2018-06-22T06:57:42.112Z,95
2018-06-22T06:58:52.173Z,95
2018-06-22T07:00:01.997Z,90
2018-06-22T07:01:12.091Z,90
2018-06-22T07:02:21.918Z,90
2018-06-22T07:03:31.989Z,90
2018-06-22T07:04:42.067Z,90
2018-06-22T07:05:51.891Z,90
2018-06-22T07:07:01.958Z,90
2018-06-22T07:08:12.047Z,90
2018-06-22T07:09:22.120Z,90
2018-06-22T07:10:31.913Z,85
2018-06-22T07:11:41.987Z,85
2018-06-22T07:12:52.077Z,85
2018-06-22T07:14:02.155Z,80
2018-06-22T07:15:12.248Z,80
2018-06-22T07:16:22.322Z,80
2018-06-22T07:17:32.397Z,80
2018-06-22T07:18:42.203Z,75
2018-06-22T07:19:52.272Z,75
2018-06-22T07:21:02.107Z,75
2018-06-22T07:22:12.228Z,75
2018-06-22T07:23:22.387Z,75
2018-06-22T07:24:32.469Z,75
2018-06-22T07:25:42.546Z,80
2018-06-22T07:26:52.637Z,80
2018-06-22T07:28:02.178Z,80
2018-06-22T07:29:12.007Z,85
2018-06-22T07:30:22.086Z,90
2018-06-22T07:31:32.163Z,100
2018-06-22T07:32:41.976Z,95
2018-06-22T07:33:52.037Z,100
2018-06-22T07:35:01.868Z,100
2018-06-22T07:36:12.064Z,100
2018-06-22T07:37:22.128Z,100
2018-06-22T07:38:31.922Z,100
2018-06-22T07:39:41.736Z,100
2018-06-22T07:40:51.814Z,100
2018-06-22T07:42:01.914Z,100
2018-06-22T07:43:11.980Z,105
2018-06-22T07:44:22.047Z,105
2018-06-22T07:45:31.848Z,105
2018-06-22T07:46:41.730Z,105
2018-06-22T07:47:51.820Z,110
2018-06-22T07:49:01.895Z,110
2018-06-22T07:50:11.702Z,115
2018-06-22T07:51:21.778Z,120
2018-06-22T07:52:31.642Z,125
2018-06-22T07:53:41.711Z,125
2018-06-22T07:54:51.518Z,125
2018-06-22T07:56:01.578Z,130
2018-06-22T07:57:11.765Z,125
2018-06-22T07:58:21.847Z,120
2018-06-22T07:59:31.956Z,120
2018-06-22T08:00:42.027Z,120
2018-06-22T08:01:52.096Z,130
2018-06-22T08:03:02.159Z,135
2018-06-22T08:04:12.017Z,150
2018-06-22T08:05:22.098Z,165
2018-06-22T08:06:32.390Z,170
2018-06-22T08:07:42.209Z,170
2018-06-22T08:08:52.058Z,165
2018-06-22T08:10:01.888Z,165
2018-06-22T08:11:11.957Z,165
2018-06-22T08:12:22.045Z,170
2018-06-22T08:13:32.119Z,180
2018-06-22T08:14:42.038Z,190
2018-06-22T08:15:52.192Z,195
2018-06-22T08:17:02.169Z,195
2018-06-22T08:18:12.262Z,195
2018-06-22T08:19:22.350Z,190
2018-06-22T08:20:31.920Z,200
2018-06-22T08:21:42.029Z,200
2018-06-22T08:22:52.119Z,210
2018-06-22T08:24:02.207Z,225
2018-06-22T08:25:12.313Z,230
2018-06-22T08:26:22.394Z,235
2018-06-22T08:27:32.485Z,230
2018-06-22T08:28:42.583Z,240
2018-06-22T08:29:52.391Z,250
2018-06-22T08:31:02.220Z,260
2018-06-22T08:32:12.342Z,260
2018-06-22T08:33:22.537Z,260
2018-06-22T08:34:34.801Z,260
2018-06-22T08:35:47.001Z,255
2018-06-22T08:36:57.737Z,245
2018-06-22T08:38:07.562Z,235
2018-06-22T08:39:17.399Z,225
2018-06-22T08:40:27.205Z,215
2018-06-22T08:41:37.688Z,200
2018-06-22T08:42:47.784Z,195
2018-06-22T08:43:57.616Z,190
2018-06-22T08:45:07.444Z,190
2018-06-22T08:46:17.567Z,185
2018-06-22T08:47:27.655Z,180
2018-06-22T08:48:37.723Z,180
2018-06-22T08:49:47.793Z,180
2018-06-22T08:50:57.426Z,180
2018-06-22T08:52:07.582Z,180
2018-06-22T08:53:17.387Z,180
2018-06-22T08:54:27.459Z,175
2018-06-22T08:55:37.311Z,160
2018-06-22T08:56:47.549Z,145
2018-06-22T08:57:57.667Z,135
2018-06-22T08:59:07.733Z,125
2018-06-22T09:00:17.811Z,120
2018-06-22T09:01:28.173Z,120
2018-06-22T09:02:38.298Z,125
2018-06-22T09:03:48.133Z,125
2018-06-22T09:04:58.233Z,130
2018-06-22T09:06:08.360Z,135
2018-06-22T09:07:18.457Z,135
2018-06-22T09:08:28.653Z,135
2018-06-22T09:09:38.757Z,135
2018-06-22T09:10:48.301Z,130
2018-06-22T09:11:57.854Z,130
2018-06-22T09:13:07.938Z,130
2018-06-22T09:14:18.016Z,140
2018-06-22T09:15:28.157Z,140
2018-06-22T09:16:37.973Z,140
2018-06-22T09:17:48.060Z,145
2018-06-22T09:18:58.133Z,145
2018-06-22T09:20:08.207Z,150
2018-06-22T09:21:18.275Z,150
2018-06-22T09:22:28.129Z,155
2018-06-22T09:23:38.237Z,165
2018-06-22T09:24:48.330Z,165
2018-06-22T09:25:58.423Z,170
2018-06-22T09:27:08.242Z,170
2018-06-22T09:28:18.331Z,180
2018-06-22T09:29:28.398Z,195
2018-06-22T09:30:38.215Z,200
2018-06-22T09:31:48.028Z,215
2018-06-22T09:32:58.122Z,225
2018-06-22T09:34:08.206Z,240
2018-06-22T09:35:18.308Z,255
2018-06-22T09:36:28.390Z,265
2018-06-22T09:37:38.480Z,265
2018-06-22T09:38:48.550Z,255
2018-06-22T09:39:58.633Z,235
2018-06-22T09:41:08.471Z,225
2018-06-22T09:42:18.577Z,205
2018-06-22T09:43:28.646Z,190
2018-06-22T09:44:38.732Z,185
2018-06-22T09:45:48.838Z,190
2018-06-22T09:46:58.679Z,195
2018-06-22T09:48:08.821Z,195
2018-06-22T09:49:18.638Z,200
2018-06-22T09:50:28.759Z,210
2018-06-22T09:51:38.838Z,220
2018-06-22T09:52:48.641Z,225
2018-06-22T09:53:58.716Z,235
2018-06-22T09:55:08.951Z,240
2018-06-22T09:56:18.816Z,240
2018-06-22T09:57:28.904Z,240
2018-06-22T09:58:38.992Z,245
2018-06-22T09:59:48.811Z,245
2018-06-22T10:00:58.730Z,250
2018-06-22T10:02:08.591Z,250
2018-06-22T10:03:18.671Z,250
2018-06-22T10:04:28.769Z,235
2018-06-22T10:05:38.844Z,230
2018-06-22T10:06:48.403Z,225
2018-06-22T10:07:58.476Z,220
2018-06-22T10:09:08.555Z,220
2018-06-22T10:10:18.666Z,220
2018-06-22T10:11:28.642Z,225
2018-06-22T10:12:38.787Z,230
2018-06-22T10:13:48.873Z,240
2018-06-22T10:14:58.962Z,240
2018-06-22T10:16:09.048Z,245
2018-06-22T10:17:18.881Z,255
2018-06-22T10:18:28.979Z,260
2018-06-22T10:19:39.256Z,270
2018-06-22T10:20:49.369Z,275
2018-06-22T10:21:59.440Z,280
2018-06-22T10:23:09.006Z,275
2018-06-22T10:24:19.086Z,270
2018-06-22T10:25:29.168Z,270
2018-06-22T10:26:39.246Z,280
2018-06-22T10:27:49.073Z,285
2018-06-22T10:28:59.163Z,280
2018-06-22T10:30:08.988Z,285
2018-06-22T10:31:19.077Z,285
2018-06-22T10:32:29.158Z,275
2018-06-22T10:33:39.242Z,265
2018-06-22T10:34:49.349Z,255
2018-06-22T10:35:59.440Z,235
2018-06-22T10:37:09.526Z,230
2018-06-22T10:38:19.367Z,225
2018-06-22T10:39:29.579Z,205
2018-06-22T10:40:39.664Z,210
2018-06-22T10:41:49.796Z,225
2018-06-22T10:42:59.881Z,230
2018-06-22T10:44:09.977Z,235
2018-06-22T10:45:20.050Z,240
2018-06-22T10:46:29.903Z,250
2018-06-22T10:47:39.998Z,275
2018-06-22T10:48:50.074Z,315
2018-06-22T10:50:00.178Z,410
2018-06-22T10:51:10.258Z,440
2018-06-22T10:52:20.331Z,440
2018-06-22T10:53:30.425Z,400
2018-06-22T10:54:40.519Z,375
2018-06-22T10:55:50.364Z,385
2018-06-22T10:57:00.215Z,355
2018-06-22T10:58:10.026Z,330
2018-06-22T10:59:20.117Z,355
2018-06-22T11:00:30.203Z,295
2018-06-22T11:01:40.284Z,320
2018-06-22T11:02:50.107Z,280
2018-06-22T11:03:59.929Z,315
2018-06-22T11:05:10.024Z,295
2018-06-22T11:06:20.098Z,275
2018-06-22T11:07:29.930Z,305
2018-06-22T11:08:39.767Z,300
2018-06-22T11:09:49.885Z,290
2018-06-22T11:10:59.970Z,290
2018-06-22T11:12:09.838Z,260
2018-06-22T11:13:19.959Z,280
2018-06-22T11:14:30.832Z,275
2018-06-22T11:15:41.015Z,265
2018-06-22T11:16:52.862Z,260
2018-06-22T11:18:03.184Z,245
2018-06-22T11:19:13.556Z,270
2018-06-22T11:20:25.968Z,260
2018-06-22T11:21:38.249Z,270
2018-06-22T11:22:50.425Z,265
2018-06-22T11:24:02.984Z,250
2018-06-22T11:25:15.121Z,260
2018-06-22T11:26:25.897Z,250
2018-06-22T11:27:36.576Z,260
2018-06-22T11:28:46.814Z,265
2018-06-22T11:29:56.678Z,255
2018-06-22T11:31:06.513Z,250
2018-06-22T11:32:16.850Z,245
2018-06-22T11:33:26.585Z,250
2018-06-22T11:34:36.518Z,255
2018-06-22T11:35:46.605Z,260
2018-06-22T11:36:56.427Z,270
2018-06-22T11:38:06.258Z,275
2018-06-22T11:39:16.346Z,285
2018-06-22T11:40:26.569Z,280
2018-06-22T11:41:36.656Z,180
2018-06-22T11:42:46.735Z,295
2018-06-22T11:43:56.604Z,185
2018-06-22T11:45:06.420Z,180
2018-06-22T11:46:16.494Z,230
2018-06-22T11:47:26.572Z,270
2018-06-22T11:48:36.651Z,280
2018-06-22T11:49:46.737Z,295
2018-06-22T11:50:56.809Z,250
2018-06-22T11:52:06.706Z,245
2018-06-22T11:53:16.789Z,235
2018-06-22T11:54:26.867Z,275
2018-06-22T11:55:36.958Z,340
2018-06-22T11:56:46.786Z,350
2018-06-22T11:57:56.965Z,345
2018-06-22T11:59:06.840Z,365
2018-06-22T12:00:16.726Z,315
2018-06-22T12:01:26.299Z,275
2018-06-22T12:02:36.411Z,280
2018-06-22T12:03:46.229Z,385
2018-06-22T12:04:56.626Z,385
2018-06-22T12:06:06.734Z,380
2018-06-22T12:07:16.823Z,280
2018-06-22T12:08:26.908Z,300
2018-06-22T12:09:36.984Z,285
2018-06-22T12:10:46.828Z,285
2018-06-22T12:11:56.921Z,305
2018-06-22T12:13:07.001Z,300
2018-06-22T12:14:17.075Z,290
2018-06-22T12:15:27.236Z,290
2018-06-22T12:16:37.068Z,290
2018-06-22T12:17:47.137Z,285
2018-06-22T12:18:57.263Z,280
2018-06-22T12:20:07.371Z,280
2018-06-22T12:21:17.239Z,275
2018-06-22T12:22:27.332Z,265
2018-06-22T12:23:37.165Z,255
2018-06-22T12:24:47.273Z,250
2018-06-22T12:25:56.830Z,255
2018-06-22T12:27:06.960Z,265
2018-06-22T12:28:16.776Z,265
2018-06-22T12:29:26.854Z,265
2018-06-22T12:30:36.936Z,275
2018-06-22T12:31:47.058Z,280
2018-06-22T12:32:56.994Z,280
2018-06-22T12:34:07.093Z,280
2018-06-22T12:35:16.918Z,265
2018-06-22T12:36:27.002Z,285
2018-06-22T12:37:37.114Z,275
2018-06-22T12:38:47.010Z,260
2018-06-22T12:39:57.092Z,250
2018-06-22T12:41:06.909Z,245
2018-06-22T12:42:16.996Z,240
2018-06-22T12:43:27.081Z,240
2018-06-22T12:44:36.646Z,230
2018-06-22T12:45:46.716Z,220
2018-06-22T12:46:56.791Z,210
2018-06-22T12:48:06.900Z,195
2018-06-22T12:49:16.725Z,180
2018-06-22T12:50:26.879Z,170
2018-06-22T12:51:36.961Z,155
2018-06-22T12:52:47.044Z,145
2018-06-22T12:53:57.145Z,135
2018-06-22T12:55:07.270Z,125
2018-06-22T12:56:17.090Z,110
2018-06-22T12:57:26.657Z,100
2018-06-22T12:58:36.738Z,95
2018-06-22T12:59:46.832Z,85
2018-06-22T13:00:56.988Z,80
2018-06-22T13:02:07.078Z,70
2018-06-22T13:03:17.155Z,70
2018-06-22T13:04:27.261Z,65
2018-06-22T13:05:37.089Z,65
2018-06-22T13:06:46.910Z,60
2018-06-22T13:07:56.999Z,60
2018-06-22T13:09:07.154Z,55
2018-06-22T13:10:16.986Z,55
2018-06-22T13:11:26.810Z,55
2018-06-22T13:12:36.894Z,55
2018-06-22T13:13:47.036Z,50
2018-06-22T13:14:57.107Z,50
2018-06-22T13:16:07.202Z,45
2018-06-22T13:17:17.348Z,45
2018-06-22T13:18:27.163Z,45
2018-06-22T13:19:37.017Z,45
2018-06-22T13:20:47.123Z,45
2018-06-22T13:21:56.946Z,45
2018-06-22T13:23:07.418Z,45
2018-06-22T13:24:17.522Z,45
2018-06-22T13:25:27.389Z,45
2018-06-22T13:26:37.479Z,40
2018-06-22T13:27:47.587Z,40
2018-06-22T13:28:57.700Z,40
2018-06-22T13:30:07.539Z,40
2018-06-22T13:31:17.392Z,40
2018-06-22T13:32:27.481Z,40
2018-06-22T13:33:37.596Z,40
2018-06-22T13:34:47.692Z,40
2018-06-22T13:35:57.820Z,45
2018-06-22T13:37:07.937Z,45
2018-06-22T13:38:17.829Z,45
2018-06-22T13:39:27.911Z,45
2018-06-22T13:40:38.003Z,45
2018-06-22T13:41:47.814Z,50
2018-06-22T13:42:57.946Z,55
2018-06-22T13:44:08.042Z,60
2018-06-22T13:45:18.130Z,65
2018-06-22T13:46:28.227Z,70
2018-06-22T13:47:38.054Z,75
2018-06-22T13:48:48.205Z,75
2018-06-22T13:49:58.296Z,85
2018-06-22T13:51:08.401Z,90
2018-06-22T13:52:18.491Z,100
2018-06-22T13:53:28.563Z,110
2018-06-22T13:54:38.449Z,120
2018-06-22T13:55:48.545Z,135
2018-06-22T13:56:58.640Z,140
2018-06-22T13:58:08.842Z,135
2018-06-22T13:59:18.672Z,135
2018-06-22T14:00:28.805Z,140
2018-06-22T14:01:38.901Z,150
2018-06-22T14:02:49.000Z,160
2018-06-22T14:03:58.742Z,170
2018-06-22T14:12:35.816Z,265
2018-06-22T14:13:45.926Z,280
2018-06-22T14:14:55.738Z,295
2018-06-22T14:16:05.590Z,255
2018-06-22T14:17:15.691Z,255
2018-06-22T14:18:25.828Z,245
2018-06-22T14:21:49.392Z,270
2018-06-22T14:22:59.564Z,230
2018-06-22T14:24:09.803Z,225
2018-06-22T14:25:19.891Z,225
2018-06-22T14:26:29.963Z,220
2018-06-22T14:27:40.046Z,215
2018-06-22T14:28:49.865Z,215
2018-06-22T14:29:59.679Z,260
2018-06-22T14:31:09.903Z,265
2018-06-22T14:32:20.124Z,255
2018-06-22T14:33:30.207Z,230
2018-06-22T14:34:40.299Z,205
2018-06-22T14:35:49.853Z,205
2018-06-22T14:36:59.696Z,220
2018-06-22T14:38:09.788Z,225
2018-06-22T14:39:19.888Z,225
2018-06-22T14:40:29.705Z,225
2018-06-22T14:41:39.797Z,250
2018-06-22T14:42:49.900Z,270
2018-06-22T14:44:00.016Z,240
2018-06-22T14:45:10.132Z,240
2018-06-22T14:46:20.209Z,240
2018-06-22T14:47:30.298Z,230
2018-06-22T14:48:40.125Z,225
2018-06-22T14:49:50.200Z,230
2018-06-22T14:50:59.759Z,235
2018-06-22T14:52:09.858Z,220
2018-06-22T14:53:19.981Z,215
2018-06-22T14:54:30.083Z,210
2018-06-22T14:55:40.172Z,200
2018-06-22T14:56:50.257Z,200
2018-06-22T14:58:00.358Z,205
2018-06-22T14:59:10.498Z,215
2018-06-22T15:00:20.579Z,210
2018-06-22T15:01:30.676Z,205
2018-06-22T15:02:40.766Z,200
2018-06-22T15:03:50.869Z,200
2018-06-22T15:05:01.045Z,200
2018-06-22T15:06:11.209Z,195
2018-06-22T15:07:21.411Z,190
2018-06-22T15:08:31.486Z,190
2018-06-22T15:09:41.586Z,190
2018-06-22T15:10:51.460Z,185
2018-06-22T15:12:01.559Z,185
2018-06-22T15:13:10.859Z,180
2018-06-22T15:14:20.945Z,180
2018-06-22T15:15:31.036Z,185
2018-06-22T15:16:41.121Z,185
2018-06-22T15:17:51.209Z,180
2018-06-22T15:19:01.319Z,180
2018-06-22T15:20:11.415Z,175
2018-06-22T15:21:21.261Z,170
2018-06-22T15:22:31.413Z,165
2018-06-22T15:23:41.498Z,170
2018-06-22T15:24:51.600Z,160
2018-06-22T15:26:01.706Z,150
2018-06-22T15:27:11.535Z,145
2018-06-22T15:28:21.369Z,140
2018-06-22T15:29:31.464Z,135
2018-06-22T15:30:41.284Z,130
2018-06-22T15:31:51.384Z,135
2018-06-22T15:33:01.510Z,140
2018-06-22T15:34:11.318Z,130
2018-06-22T15:35:21.436Z,120
2018-06-22T15:36:31.543Z,110
2018-06-22T15:37:41.632Z,110
2018-06-22T15:38:51.219Z,110
2018-06-22T15:40:01.527Z,110
2018-06-22T15:41:11.627Z,110
2018-06-22T15:42:21.695Z,115
2018-06-22T15:43:31.782Z,115
2018-06-22T15:44:41.623Z,105
2018-06-22T15:45:51.878Z,90
2018-06-22T15:47:01.716Z,75
2018-06-22T15:48:11.815Z,70
2018-06-22T15:49:21.884Z,60
2018-06-22T15:50:31.709Z,55
2018-06-22T15:51:41.884Z,45
2018-06-22T15:52:51.967Z,40
2018-06-22T15:54:02.095Z,40
2018-06-22T15:55:12.180Z,40
2018-06-22T15:56:22.258Z,45
2018-06-22T15:57:32.356Z,50
2018-06-22T15:58:42.483Z,50
2018-06-22T15:59:52.724Z,55
2018-06-22T16:01:03.046Z,55
2018-06-22T16:02:12.924Z,60
2018-06-22T16:03:23.105Z,60
2018-06-22T16:04:33.253Z,60
2018-06-22T16:05:43.346Z,55
2018-06-22T16:06:53.488Z,55
2018-06-22T16:08:03.579Z,55
2018-06-22T16:09:13.448Z,55
2018-06-22T16:10:23.247Z,55
2018-06-22T16:11:33.694Z,55
2018-06-22T16:12:43.805Z,60
2018-06-22T16:13:53.648Z,60
2018-06-22T16:15:03.735Z,60
2018-06-22T16:16:13.816Z,65
2018-06-22T16:17:23.649Z,65
2018-06-22T16:18:33.811Z,70
2018-06-22T16:19:43.936Z,75
2018-06-22T16:20:54.130Z,85
2018-06-22T16:22:04.511Z,95
2018-06-22T16:23:14.701Z,90
2018-06-22T16:24:24.822Z,90
2018-06-22T16:25:34.918Z,90
2018-06-22T16:26:45.222Z,95
2018-06-22T16:27:55.333Z,105
2018-06-22T16:29:05.484Z,115
2018-06-22T16:30:15.355Z,120
2018-06-22T16:31:25.527Z,125
2018-06-22T16:32:35.637Z,125
2018-06-22T16:33:45.736Z,125
2018-06-22T16:34:55.814Z,130
2018-06-22T16:36:05.920Z,135
2018-06-22T16:37:15.791Z,140
2018-06-22T16:38:25.904Z,145
2018-06-22T16:39:36.002Z,145
2018-06-22T16:40:46.110Z,145
2018-06-22T16:41:56.197Z,135
2018-06-22T16:43:06.004Z,130
2018-06-22T16:44:16.136Z,125
2018-06-22T16:45:26.255Z,115
2018-06-22T16:46:36.351Z,115
2018-06-22T16:47:46.199Z,110
2018-06-22T16:48:56.060Z,105
2018-06-22T16:50:05.939Z,115
2018-06-22T16:51:15.826Z,125
2018-06-22T16:52:25.934Z,125
2018-06-22T16:53:36.076Z,115
2018-06-22T16:54:45.932Z,110
2018-06-22T16:55:56.081Z,110
2018-06-22T16:57:06.182Z,120
2018-06-22T16:58:16.286Z,135
2018-06-22T16:59:26.417Z,135
2018-06-22T17:00:36.584Z,145
2018-06-22T17:01:46.721Z,150
2018-06-22T17:02:56.874Z,115
2018-06-22T17:04:06.981Z,100
2018-06-22T17:05:17.100Z,90
2018-06-22T17:06:26.937Z,80
2018-06-22T17:07:36.766Z,70
2018-06-22T17:08:46.881Z,70
2018-06-22T17:09:57.209Z,65